createdAt,value
2022-08-05T00:00:16.591Z,100702.34
2022-08-05T00:02:51.624Z,100684.22
2022-08-05T00:06:02.959Z,100684.94
2022-08-05T00:08:19.831Z,100690.09
2022-08-05T00:11:00.489Z,100681.78
2022-08-05T00:13:38.334Z,100691.59
2022-08-05T00:16:09.060Z,100685.41
2022-08-05T00:18:37.897Z,100678.91
2022-08-05T00:21:08.257Z,100675.28
2022-08-05T00:23:45.956Z,100675.28
2022-08-05T00:26:16.291Z,100681.56
2022-08-05T00:28:45.871Z,100686.69
2022-08-05T00:31:14.185Z,100672.06
2022-08-05T00:34:55.989Z,100689.06
2022-08-05T00:37:13.025Z,100683.06
2022-08-05T00:39:19.732Z,100680.22
2022-08-05T00:41:51.947Z,100682.56
2022-08-05T00:44:30.927Z,100680.66
2022-08-05T00:47:03.933Z,100684.06
2022-08-05T00:49:51.033Z,100667.22
2022-08-05T00:52:28.761Z,100675.41
2022-08-05T00:54:58.358Z,100662.31
2022-08-05T00:57:31.849Z,100677.13
2022-08-05T01:00:14.453Z,100672.00
2022-08-05T01:02:44.983Z,100668.59
2022-08-05T01:05:12.769Z,100674.66
2022-08-05T01:08:39.819Z,100671.59
2022-08-05T01:10:36.155Z,100677.56
2022-08-05T01:13:19.482Z,100667.84
2022-08-05T01:15:56.778Z,100668.50
2022-08-05T01:18:33.559Z,100676.41
2022-08-05T01:21:12.844Z,100675.66
2022-08-05T01:24:14.120Z,100680.00
2022-08-05T01:27:01.228Z,100674.69
2022-08-05T01:29:52.702Z,100672.34
2022-08-05T01:32:27.732Z,100672.34
2022-08-05T01:35:00.735Z,100677.78
2022-08-05T01:37:36.989Z,100680.34
2022-08-05T01:40:17.829Z,100667.97
2022-08-05T01:42:47.377Z,100668.94
2022-08-05T01:45:17.062Z,100675.22
2022-08-05T01:47:48.422Z,100670.13
2022-08-05T01:50:28.380Z,100672.78
2022-08-05T01:53:01.170Z,100665.88
2022-08-05T01:55:36.135Z,100670.53
2022-08-05T01:58:13.082Z,100673.09
2022-08-05T02:00:49.084Z,100672.47
2022-08-05T02:03:29.273Z,100682.13
2022-08-05T02:06:03.786Z,100677.88
2022-08-05T02:08:57.935Z,100669.03
2022-08-05T02:11:33.985Z,100685.53
2022-08-05T02:14:12.455Z,100684.19
2022-08-05T02:16:52.761Z,100673.28
2022-08-05T02:19:34.326Z,100683.84
2022-08-05T02:22:05.357Z,100682.34
2022-08-05T02:24:37.732Z,100677.50
2022-08-05T02:27:10.565Z,100681.13
2022-08-05T02:29:59.216Z,100672.69
2022-08-05T02:32:32.283Z,100688.72
2022-08-05T02:35:09.816Z,100691.19
2022-08-05T02:37:46.422Z,100684.78
2022-08-05T02:40:17.262Z,100690.84
2022-08-05T02:42:52.623Z,100689.06
2022-08-05T02:45:24.482Z,100701.41
2022-08-05T02:48:06.480Z,100704.81
2022-08-05T02:50:43.661Z,100704.41
2022-08-05T02:53:19.095Z,100712.31
2022-08-05T02:55:59.510Z,100707.94
2022-08-05T02:58:30.927Z,100713.41
2022-08-05T03:01:02.053Z,100712.03
2022-08-05T03:03:34.062Z,100713.56
2022-08-05T03:06:55.753Z,100709.81
2022-08-05T03:09:12.585Z,100712.91
2022-08-05T03:11:56.621Z,100721.25
2022-08-05T03:14:26.315Z,100720.91
2022-08-05T03:16:54.110Z,100718.25
2022-08-05T03:19:34.020Z,100725.72
2022-08-05T03:22:04.969Z,100724.47
2022-08-05T03:24:47.276Z,100712.50
2022-08-05T03:27:20.771Z,100713.81
2022-08-05T03:30:08.202Z,100708.91
2022-08-05T03:32:38.171Z,100712.72
2022-08-05T03:35:08.914Z,100709.41
2022-08-05T03:37:45.693Z,100714.44
2022-08-05T03:40:24.287Z,100719.94
2022-08-05T03:42:53.004Z,100716.00
2022-08-05T03:45:23.372Z,100719.84
2022-08-05T03:47:51.484Z,100715.03
2022-08-05T03:50:20.947Z,100712.88
2022-08-05T03:55:34.498Z,100716.06
2022-08-05T03:56:10.011Z,100718.56
2022-08-05T03:58:44.937Z,100716.00
2022-08-05T04:01:17.005Z,100720.53
2022-08-05T04:04:09.179Z,100723.59
2022-08-05T04:06:47.438Z,100716.94
2022-08-05T04:09:20.254Z,100732.41
2022-08-05T04:11:56.736Z,100729.25
2022-08-05T04:14:29.409Z,100742.53
2022-08-05T04:17:00.296Z,100737.09
2022-08-05T04:19:29.140Z,100742.94
2022-08-05T04:22:08.788Z,100734.91
2022-08-05T04:24:43.905Z,100734.13
2022-08-05T04:27:13.150Z,100735.50
2022-08-05T04:29:44.043Z,100734.38
2022-08-05T04:32:13.026Z,100730.63
2022-08-05T04:34:43.252Z,100730.13
2022-08-05T04:37:12.860Z,100727.53
2022-08-05T04:39:40.641Z,100723.97
2022-08-05T04:42:09.225Z,100732.72
2022-08-05T04:44:37.803Z,100728.78
2022-08-05T04:47:09.789Z,100726.09
2022-08-05T04:50:01.369Z,100723.38
2022-08-05T04:52:28.513Z,100725.63
2022-08-05T04:54:56.998Z,100715.69
2022-08-05T04:57:29.283Z,100718.41
2022-08-05T05:00:05.753Z,100712.28
2022-08-05T05:02:43.107Z,100715.28
2022-08-05T05:05:16.877Z,100712.22
2022-08-05T05:08:01.082Z,100714.59
2022-08-05T05:10:33.263Z,100715.19
2022-08-05T05:13:03.965Z,100711.03
2022-08-05T05:15:59.260Z,100715.59
2022-08-05T05:18:31.384Z,100712.81
2022-08-05T05:21:02.056Z,100719.06
2022-08-05T05:24:02.139Z,100716.56
2022-08-05T05:26:28.550Z,100720.84
2022-08-05T05:29:02.309Z,100723.97
2022-08-05T05:34:02.532Z,100727.34
2022-08-05T05:36:30.706Z,100711.38
2022-08-05T05:39:00.749Z,100708.25
2022-08-05T05:41:40.793Z,100720.56
2022-08-05T05:44:35.963Z,100715.47
2022-08-05T05:46:58.432Z,100708.00
2022-08-05T05:49:33.468Z,100722.97
2022-08-05T05:52:05.998Z,100720.41
2022-08-05T05:54:50.262Z,100719.38
2022-08-05T05:57:19.689Z,100722.25
2022-08-05T05:59:47.361Z,100725.91
2022-08-05T06:02:16.887Z,100724.50
2022-08-05T06:04:49.140Z,100716.41
2022-08-05T06:07:17.133Z,100721.88
2022-08-05T06:10:01.695Z,100724.72
2022-08-05T06:12:34.383Z,100718.47
2022-08-05T06:15:16.199Z,100728.06
2022-08-05T06:17:53.093Z,100728.56
2022-08-05T06:20:22.530Z,100733.94
2022-08-05T06:22:50.493Z,100723.72
2022-08-05T06:25:25.165Z,100723.34
2022-08-05T06:28:12.622Z,100718.34
2022-08-05T06:30:49.186Z,100726.06
2022-08-05T06:33:19.408Z,100729.19
2022-08-05T06:36:07.576Z,100727.44
2022-08-05T06:38:38.166Z,100719.84
2022-08-05T06:41:16.329Z,100728.91
2022-08-05T06:43:59.831Z,100717.81
2022-08-05T06:46:29.821Z,100720.72
2022-08-05T06:48:59.318Z,100719.63
2022-08-05T06:51:30.968Z,100720.34
2022-08-05T06:54:00.169Z,100712.25
2022-08-05T06:56:33.903Z,100726.19
2022-08-05T06:59:03.684Z,100718.19
2022-08-05T07:01:36.412Z,100722.59
2022-08-05T07:04:04.869Z,100715.53
2022-08-05T07:06:32.539Z,100711.38
2022-08-05T07:09:00.300Z,100713.03
2022-08-05T07:11:37.017Z,100714.41
2022-08-05T07:14:06.958Z,100720.75
2022-08-05T07:18:00.303Z,100724.75
2022-08-05T07:20:10.656Z,100708.66
2022-08-05T07:22:20.182Z,100718.72
2022-08-05T07:24:52.663Z,100707.31
2022-08-05T07:27:23.360Z,100710.88
2022-08-05T07:30:23.888Z,100714.56
2022-08-05T07:32:46.265Z,100713.88
2022-08-05T07:36:03.869Z,100718.47
2022-08-05T07:38:12.284Z,100714.69
2022-08-05T07:40:55.694Z,100716.41
2022-08-05T07:43:31.076Z,100715.47
2022-08-05T07:45:59.026Z,100710.03
2022-08-05T07:49:02.440Z,100707.69
2022-08-05T07:51:23.863Z,100698.22
2022-08-05T07:54:02.587Z,100710.28
2022-08-05T07:57:01.237Z,100707.94
2022-08-05T07:59:23.263Z,100709.78
2022-08-05T08:02:07.286Z,100714.66
2022-08-05T08:04:45.119Z,100707.03
2022-08-05T08:07:13.732Z,100715.03
2022-08-05T08:09:42.714Z,100716.88
2022-08-05T08:12:27.453Z,100711.94
2022-08-05T08:15:03.645Z,100714.63
2022-08-05T08:17:32.519Z,100705.66
2022-08-05T08:20:00.674Z,100703.00
2022-08-05T08:22:52.050Z,100721.38
2022-08-05T08:25:27.092Z,100710.09
2022-08-05T08:28:11.347Z,100702.13
2022-08-05T08:30:49.937Z,100707.44
2022-08-05T08:33:19.114Z,100710.41
2022-08-05T08:35:53.870Z,100705.28
2022-08-05T08:38:37.797Z,100704.66
2022-08-05T08:41:07.714Z,100692.91
2022-08-05T08:45:19.741Z,100695.84
2022-08-05T08:46:29.697Z,100702.31
2022-08-05T08:49:17.452Z,100701.84
2022-08-05T08:52:03.025Z,100703.53
2022-08-05T08:54:36.583Z,100700.25
2022-08-05T08:57:06.075Z,100694.88
2022-08-05T08:59:41.891Z,100702.41
2022-08-05T09:02:26.876Z,100697.72
2022-08-05T09:05:16.111Z,100691.78
2022-08-05T09:07:57.312Z,100688.25
2022-08-05T09:10:27.823Z,100683.22
2022-08-05T09:13:04.994Z,100685.53
2022-08-05T09:15:36.819Z,100691.47
2022-08-05T09:18:08.847Z,100689.19
2022-08-05T09:20:38.206Z,100681.41
2022-08-05T09:23:18.734Z,100685.69
2022-08-05T09:26:02.122Z,100688.91
2022-08-05T09:28:33.849Z,100683.69
2022-08-05T09:31:23.255Z,100682.31
2022-08-05T09:33:56.183Z,100687.00
2022-08-05T09:36:27.718Z,100686.88
2022-08-05T09:39:03.068Z,100686.44
2022-08-05T09:41:33.212Z,100679.53
2022-08-05T09:44:07.007Z,100675.41
2022-08-05T09:46:35.256Z,100671.47
2022-08-05T09:49:07.832Z,100677.06
2022-08-05T09:51:48.973Z,100677.75
2022-08-05T09:54:29.942Z,100672.34
2022-08-05T09:57:01.548Z,100686.44
2022-08-05T09:59:37.053Z,100676.97
2022-08-05T10:02:05.209Z,100676.16
2022-08-05T10:04:38.236Z,100678.28
2022-08-05T10:07:20.051Z,100671.22
2022-08-05T10:10:04.316Z,100663.19
2022-08-05T10:12:50.014Z,100672.34
2022-08-05T10:15:21.645Z,100672.88
2022-08-05T10:18:12.743Z,100676.56
2022-08-05T10:20:44.454Z,100679.72
2022-08-05T10:23:34.443Z,100692.63
2022-08-05T10:26:08.258Z,100679.56
2022-08-05T10:28:43.530Z,100693.78
2022-08-05T10:32:51.905Z,100694.25
2022-08-05T10:34:02.224Z,100695.56
2022-08-05T10:36:31.436Z,100709.88
2022-08-05T10:39:10.068Z,100703.34
2022-08-05T10:41:47.170Z,100696.66
2022-08-05T10:44:18.419Z,100680.56
2022-08-05T10:46:51.070Z,100686.16
2022-08-05T10:49:26.627Z,100675.91
2022-08-05T10:51:59.926Z,100691.84
2022-08-05T10:54:56.168Z,100696.25
2022-08-05T10:57:26.256Z,100705.25
2022-08-05T11:00:17.934Z,100705.66
2022-08-05T11:03:23.380Z,100704.84
2022-08-05T11:06:15.714Z,100699.53
2022-08-05T11:09:45.116Z,100691.00
2022-08-05T11:12:45.434Z,100697.81
2022-08-05T11:15:24.404Z,100687.75
2022-08-05T11:18:25.645Z,100691.00
2022-08-05T11:20:54.218Z,100685.75
2022-08-05T11:24:04.145Z,100694.25
2022-08-05T11:26:28.247Z,100689.81
2022-08-05T11:29:06.580Z,100689.66
2022-08-05T11:31:57.500Z,100696.00
2022-08-05T11:34:37.148Z,100678.69
2022-08-05T11:37:55.145Z,100678.09
2022-08-05T11:40:00.340Z,100671.59
2022-08-05T11:42:33.011Z,100668.53
2022-08-05T11:45:23.102Z,100672.88
2022-08-05T11:47:57.935Z,100664.53
2022-08-05T11:50:26.576Z,100666.47
2022-08-05T11:52:57.904Z,100650.72
2022-08-05T11:55:31.971Z,100660.56
2022-08-05T11:58:10.648Z,100664.13
2022-08-05T12:00:41.619Z,100653.81
2022-08-05T12:03:16.557Z,100656.69
2022-08-05T12:06:00.011Z,100653.88
2022-08-05T12:08:27.833Z,100650.47
2022-08-05T12:10:59.612Z,100650.94
2022-08-05T12:13:48.593Z,100644.88
2022-08-05T12:16:27.045Z,100646.66
2022-08-05T12:18:55.722Z,100643.44
2022-08-05T12:21:30.271Z,100636.84
2022-08-05T12:24:05.002Z,100635.81
2022-08-05T12:26:36.248Z,100642.56
2022-08-05T12:29:05.990Z,100635.00
2022-08-05T12:31:46.057Z,100632.97
2022-08-05T12:34:20.488Z,100634.47
2022-08-05T12:36:53.075Z,100639.19
2022-08-05T12:39:21.068Z,100642.03
2022-08-05T12:41:48.946Z,100646.06
2022-08-05T12:44:21.573Z,100640.59
2022-08-05T12:47:02.442Z,100634.13
2022-08-05T12:50:02.244Z,100635.94
2022-08-05T12:52:33.947Z,100636.09
2022-08-05T12:55:17.040Z,100632.31
2022-08-05T12:58:49.212Z,100620.91
2022-08-05T13:02:04.062Z,100624.59
2022-08-05T13:03:22.042Z,100617.22
2022-08-05T13:05:50.752Z,100617.22
2022-08-05T13:08:19.371Z,100627.59
2022-08-05T13:10:50.139Z,100632.94
2022-08-05T13:14:04.637Z,100637.63
2022-08-05T13:16:15.380Z,100626.03
2022-08-05T13:18:53.043Z,100635.03
2022-08-05T13:21:27.810Z,100649.94
2022-08-05T13:24:06.136Z,100649.19
2022-08-05T13:26:36.857Z,100658.94
2022-08-05T13:29:05.409Z,100654.41
2022-08-05T13:32:03.900Z,100672.94
2022-08-05T13:34:25.944Z,100657.25
2022-08-05T13:36:54.306Z,100661.38
2022-08-05T13:40:14.514Z,100652.06
2022-08-05T13:42:14.757Z,100643.63
2022-08-05T13:44:45.547Z,100627.03
2022-08-05T13:47:35.281Z,100626.34
2022-08-05T13:50:08.142Z,100630.25
2022-08-05T13:52:39.276Z,100630.72
2022-08-05T13:55:09.745Z,100634.31
2022-08-05T13:57:48.509Z,100631.94
2022-08-05T14:00:27.702Z,100630.72
2022-08-05T14:02:56.493Z,100627.22
2022-08-05T14:05:48.166Z,100625.94
2022-08-05T14:08:20.748Z,100624.41
2022-08-05T14:11:03.171Z,100627.13
2022-08-05T14:13:43.796Z,100633.75
2022-08-05T14:16:16.818Z,100623.59
2022-08-05T14:18:45.015Z,100619.22
2022-08-05T14:22:07.137Z,100627.44
2022-08-05T14:24:02.019Z,100619.19
2022-08-05T14:26:36.936Z,100625.28
2022-08-05T14:29:16.606Z,100626.69
2022-08-05T14:32:02.379Z,100636.59
2022-08-05T14:34:35.670Z,100625.53
2022-08-05T14:37:05.580Z,100623.56
2022-08-05T14:39:49.573Z,100619.03
2022-08-05T14:42:21.157Z,100620.72
2022-08-05T14:44:50.142Z,100623.84
2022-08-05T14:47:58.283Z,100621.16
2022-08-05T14:50:18.514Z,100627.53
2022-08-05T14:52:53.571Z,100613.13
2022-08-05T14:55:38.451Z,100618.63
2022-08-05T14:58:11.124Z,100623.00
2022-08-05T15:00:59.309Z,100620.88
2022-08-05T15:03:33.709Z,100622.69
2022-08-05T15:06:13.634Z,100625.25
2022-08-05T15:09:01.226Z,100626.41
2022-08-05T15:11:52.706Z,100610.81
2022-08-05T15:14:34.579Z,100616.63
2022-08-05T15:17:09.933Z,100616.00
2022-08-05T15:19:55.843Z,100616.25
2022-08-05T15:22:26.847Z,100615.50
2022-08-05T15:24:57.152Z,100618.34
2022-08-05T15:27:25.434Z,100620.75
2022-08-05T15:29:54.273Z,100614.09
2022-08-05T15:32:27.405Z,100608.97
2022-08-05T15:34:57.182Z,100613.97
2022-08-05T15:38:33.159Z,100616.66
2022-08-05T15:41:01.187Z,100618.09
2022-08-05T15:43:10.812Z,100606.00
2022-08-05T15:45:43.576Z,100612.72
2022-08-05T15:48:14.572Z,100616.44
2022-08-05T15:50:43.800Z,100604.59
2022-08-05T15:53:13.476Z,100622.66
2022-08-05T15:56:03.526Z,100618.31
2022-08-05T15:58:35.752Z,100626.38
2022-08-05T16:01:16.299Z,100616.75
2022-08-05T16:03:50.277Z,100617.03
2022-08-05T16:06:19.567Z,100621.88
2022-08-05T16:08:50.946Z,100618.47
2022-08-05T16:11:43.036Z,100612.94
2022-08-05T16:14:17.066Z,100608.56
2022-08-05T16:16:46.165Z,100608.28
2022-08-05T16:19:25.368Z,100615.09
2022-08-05T16:22:02.933Z,100613.34
2022-08-05T16:24:39.956Z,100607.13
2022-08-05T16:27:15.921Z,100608.28
2022-08-05T16:29:50.200Z,100613.50
2022-08-05T16:32:28.338Z,100605.44
2022-08-05T16:34:57.386Z,100611.69
2022-08-05T16:38:15.889Z,100613.53
2022-08-05T16:40:28.759Z,100614.50
2022-08-05T16:42:58.745Z,100611.97
2022-08-05T16:46:07.276Z,100619.34
2022-08-05T16:48:25.172Z,100621.19
2022-08-05T16:50:54.073Z,100616.50
2022-08-05T16:53:22.859Z,100631.34
2022-08-05T16:55:59.669Z,100629.09
2022-08-05T16:58:28.735Z,100639.44
2022-08-05T17:00:57.572Z,100639.69
2022-08-05T17:03:26.993Z,100644.22
2022-08-05T17:05:59.319Z,100641.69
2022-08-05T17:08:35.791Z,100648.31
2022-08-05T17:11:16.574Z,100645.22
2022-08-05T17:13:46.575Z,100648.75
2022-08-05T17:16:33.392Z,100647.06
2022-08-05T17:19:02.544Z,100646.50
2022-08-05T17:21:35.549Z,100648.91
2022-08-05T17:24:28.326Z,100648.19
2022-08-05T17:26:51.958Z,100652.97
2022-08-05T17:29:22.446Z,100646.91
2022-08-05T17:31:58.246Z,100654.34
2022-08-05T17:34:29.771Z,100656.03
2022-08-05T17:37:00.040Z,100653.75
2022-08-05T17:39:33.145Z,100661.41
2022-08-05T17:42:19.190Z,100660.69
2022-08-05T17:44:51.424Z,100669.00
2022-08-05T17:47:21.884Z,100674.34
2022-08-05T17:49:59.844Z,100679.13
2022-08-05T17:52:32.967Z,100670.38
2022-08-05T17:55:01.139Z,100684.31
2022-08-05T17:57:31.393Z,100683.59
2022-08-05T18:00:05.148Z,100685.56
2022-08-05T18:02:34.366Z,100686.81
2022-08-05T18:05:06.224Z,100688.06
2022-08-05T18:07:41.562Z,100685.94
2022-08-05T18:10:11.461Z,100679.28
2022-08-05T18:12:42.073Z,100685.50
2022-08-05T18:15:11.726Z,100686.09
2022-08-05T18:18:00.240Z,100680.88
2022-08-05T18:20:29.175Z,100678.72
2022-08-05T18:25:39.135Z,100676.75
2022-08-05T18:28:07.018Z,100686.22
2022-08-05T18:30:40.358Z,100685.75
2022-08-05T18:33:08.078Z,100688.22
2022-08-05T18:35:59.682Z,100683.25
2022-08-05T18:38:26.232Z,100676.03
2022-08-05T18:41:53.167Z,100686.03
2022-08-05T18:43:43.087Z,100684.13
2022-08-05T18:46:20.141Z,100676.84
2022-08-05T18:48:52.065Z,100691.69
2022-08-05T18:52:04.543Z,100683.94
2022-08-05T18:54:08.862Z,100690.66
2022-08-05T18:56:38.062Z,100681.28
2022-08-05T18:59:42.631Z,100688.25
2022-08-05T19:01:57.286Z,100691.31
2022-08-05T19:04:26.122Z,100679.41
2022-08-05T19:06:54.688Z,100681.09
2022-08-05T19:09:22.761Z,100676.84
2022-08-05T19:12:00.114Z,100677.97
2022-08-05T19:14:37.768Z,100682.00
2022-08-05T19:17:18.246Z,100681.28
2022-08-05T19:19:48.642Z,100681.38
2022-08-05T19:22:17.658Z,100673.78
2022-08-05T19:24:54.298Z,100689.22
2022-08-05T19:27:27.740Z,100683.03
2022-08-05T19:29:58.186Z,100679.13
2022-08-05T19:32:27.796Z,100688.38
2022-08-05T19:34:56.129Z,100683.31
2022-08-05T19:37:30.002Z,100684.16
2022-08-05T19:40:14.962Z,100684.41
2022-08-05T19:43:05.541Z,100676.75
2022-08-05T19:45:33.208Z,100682.59
2022-08-05T19:48:06.824Z,100679.81
2022-08-05T19:50:42.596Z,100682.94
2022-08-05T19:53:10.941Z,100678.81
2022-08-05T19:56:14.579Z,100678.06
2022-08-05T19:58:28.920Z,100672.63
2022-08-05T20:00:57.768Z,100679.16
2022-08-05T20:03:27.505Z,100677.22
2022-08-05T20:06:11.649Z,100671.03
2022-08-05T20:08:43.859Z,100663.75
2022-08-05T20:11:18.007Z,100670.66
2022-08-05T20:13:58.617Z,100659.84
2022-08-05T20:16:35.872Z,100670.56
2022-08-05T20:19:06.499Z,100665.97
2022-08-05T20:21:34.881Z,100672.00
2022-08-05T20:24:06.934Z,100668.50
2022-08-05T20:26:35.118Z,100661.06
2022-08-05T20:29:02.783Z,100669.09
2022-08-05T20:31:42.738Z,100656.69
2022-08-05T20:34:20.014Z,100659.59
2022-08-05T20:36:47.909Z,100651.22
2022-08-05T20:39:16.459Z,100651.84
2022-08-05T20:41:45.022Z,100641.28
2022-08-05T20:44:19.243Z,100634.69
2022-08-05T20:46:58.119Z,100644.31
2022-08-05T20:49:27.427Z,100633.00
2022-08-05T20:51:57.539Z,100630.94
2022-08-05T20:54:26.065Z,100640.03
2022-08-05T20:57:14.583Z,100638.81
2022-08-05T20:59:46.148Z,100628.00
2022-08-05T21:02:31.193Z,100626.78
2022-08-05T21:05:02.293Z,100628.72
2022-08-05T21:07:50.744Z,100635.16
2022-08-05T21:10:18.133Z,100628.25
2022-08-05T21:13:09.020Z,100629.66
2022-08-05T21:15:34.185Z,100627.91
2022-08-05T21:18:01.953Z,100625.47
2022-08-05T21:20:32.811Z,100629.50
2022-08-05T21:23:01.502Z,100626.69
2022-08-05T21:25:34.007Z,100630.56
2022-08-05T21:28:02.677Z,100627.16
2022-08-05T21:30:30.464Z,100627.31
2022-08-05T21:32:58.138Z,100637.53
2022-08-05T21:35:29.929Z,100634.22
2022-08-05T21:38:12.747Z,100629.56
2022-08-05T21:40:41.570Z,100628.13
2022-08-05T21:43:24.146Z,100618.75
2022-08-05T21:45:56.467Z,100623.47
2022-08-05T21:48:25.143Z,100615.19
2022-08-05T21:50:54.494Z,100626.13
2022-08-05T21:53:27.495Z,100620.81
2022-08-05T21:56:05.441Z,100617.41
2022-08-05T21:58:57.232Z,100617.28
2022-08-05T22:01:25.955Z,100613.03
2022-08-05T22:03:53.995Z,100614.91
2022-08-05T22:06:35.263Z,100618.03
2022-08-05T22:09:14.815Z,100627.38
2022-08-05T22:11:43.726Z,100620.09
2022-08-05T22:14:34.118Z,100611.25
2022-08-05T22:17:05.368Z,100621.41
2022-08-05T22:20:00.723Z,100614.25
2022-08-05T22:22:26.875Z,100607.97
2022-08-05T22:24:58.777Z,100615.31
2022-08-05T22:28:09.029Z,100614.47
2022-08-05T22:30:16.140Z,100612.56
2022-08-05T22:32:45.070Z,100598.97
2022-08-05T22:35:13.985Z,100603.56
2022-08-05T22:37:59.353Z,100605.94
2022-08-05T22:40:30.642Z,100610.06
2022-08-05T22:42:58.592Z,100619.88
2022-08-05T22:45:26.498Z,100619.03
2022-08-05T22:47:55.427Z,100616.47
2022-08-05T22:50:27.839Z,100615.50
2022-08-05T22:52:57.069Z,100608.19
2022-08-05T22:55:26.084Z,100600.50
2022-08-05T22:57:55.465Z,100613.41
2022-08-05T23:00:23.721Z,100615.00
2022-08-05T23:02:52.212Z,100606.91
2022-08-05T23:05:22.192Z,100606.03
2022-08-05T23:07:50.722Z,100606.47
2022-08-05T23:10:23.462Z,100608.84
2022-08-05T23:12:54.966Z,100611.38
2022-08-05T23:15:27.071Z,100608.19
2022-08-05T23:18:01.233Z,100603.78
2022-08-05T23:20:32.615Z,100599.19
2022-08-05T23:23:00.725Z,100603.06
2022-08-05T23:25:52.003Z,100607.63
2022-08-05T23:28:28.722Z,100605.88
2022-08-05T23:31:15.690Z,100615.66
2022-08-05T23:34:04.226Z,100618.66
2022-08-05T23:36:38.466Z,100620.81
2022-08-05T23:39:07.801Z,100612.50
2022-08-05T23:41:37.422Z,100613.97
2022-08-05T23:44:09.051Z,100616.09
2022-08-05T23:46:39.964Z,100609.16
2022-08-05T23:49:16.773Z,100613.72
2022-08-05T23:51:45.823Z,100610.50
2022-08-05T23:54:25.155Z,100623.72
2022-08-05T23:57:03.120Z,100618.59
